KCXP

Carson Airport

Carson City, Nevada, USA
METAR KCXP 180835Z AUTO 00000KT 10SM CLR M07/M09 A3030 RMK AO2
Observed Flight Rules
Dec-18 @ 08:35 UTC (15 minutes ago) Visual Flight Rules
Wind Visibility Clouds
Calm 10 miles
  • Clear skies
Temperatures Readings
Current -7°C / 19°F
Dewpoint -9°C / 16°F
Humidity 86%
Altimeter 30.3" Hg
Pressure 1026 hPa
Elevation 1435
METAR KCXP 180835Z AUTO 00000KT 10SM CLR M07/M09 A3030 RMK AO2
Observed Flight Rules
Dec-18 @ 08:35 UTC
(15 minutes ago)
VFR
Wind Visibility
Calm 10 miles
Clouds
  • Clear skies
Temperature Dewpoint
-7°C / 19°F -9°C / 16°F
Humidity Altimeter Pressure
86% 30.3" Hg 1026 hPa